createdAt,value
2022-10-22T00:01:13.418Z,100760.31
2022-10-22T00:03:42.046Z,100768.06
2022-10-22T00:06:10.184Z,100763.59
2022-10-22T00:08:38.677Z,100767.69
2022-10-22T00:11:12.622Z,100757.75
2022-10-22T00:13:41.332Z,100760.88
2022-10-22T00:16:10.483Z,100761.69
2022-10-22T00:18:40.514Z,100760.41
2022-10-22T00:21:09.173Z,100763.06
2022-10-22T00:23:39.929Z,100754.16
2022-10-22T00:26:08.055Z,100751.56
2022-10-22T00:28:36.471Z,100747.13
2022-10-22T00:31:05.065Z,100735.50
2022-10-22T00:33:33.551Z,100726.63
2022-10-22T00:36:01.748Z,100728.31
2022-10-22T00:38:29.956Z,100721.75
2022-10-22T00:40:58.144Z,100719.78
2022-10-22T00:43:27.290Z,100712.34
2022-10-22T00:45:55.637Z,100707.75
2022-10-22T00:48:30.010Z,100707.00
2022-10-22T00:51:06.364Z,100705.94
2022-10-22T00:53:56.131Z,100692.53
2022-10-22T00:56:25.358Z,100683.00
2022-10-22T00:59:00.123Z,100698.22
2022-10-22T01:01:30.900Z,100702.34
2022-10-22T01:04:01.416Z,100708.00
2022-10-22T01:06:32.877Z,100711.81
2022-10-22T01:09:26.833Z,100699.25
2022-10-22T01:12:00.875Z,100708.84
2022-10-22T01:14:43.923Z,100700.63
2022-10-22T01:17:36.090Z,100697.19
2022-10-22T01:20:31.107Z,100708.94
2022-10-22T01:23:28.303Z,100700.56
2022-10-22T01:26:05.239Z,100686.00
2022-10-22T01:28:51.335Z,100696.44
2022-10-22T01:31:22.968Z,100685.53
2022-10-22T01:33:53.182Z,100680.75
2022-10-22T01:36:22.224Z,100683.72
2022-10-22T01:38:52.180Z,100679.59
2022-10-22T01:41:20.517Z,100682.25
2022-10-22T01:43:49.832Z,100684.56
2022-10-22T01:46:19.387Z,100681.75
2022-10-22T01:48:59.692Z,100675.47
2022-10-22T01:51:53.623Z,100676.16
2022-10-22T01:54:29.935Z,100672.84
2022-10-22T01:57:10.823Z,100671.66
2022-10-22T01:59:38.879Z,100664.72
2022-10-22T02:02:25.804Z,100662.09
2022-10-22T02:05:09.640Z,100661.75
2022-10-22T02:07:43.818Z,100648.53
2022-10-22T02:10:13.384Z,100643.72
2022-10-22T02:12:43.952Z,100641.72
2022-10-22T02:15:17.025Z,100649.19
2022-10-22T02:17:47.220Z,100659.44
2022-10-22T02:20:23.087Z,100668.84
2022-10-22T02:22:52.283Z,100660.91
2022-10-22T02:25:25.005Z,100639.41
2022-10-22T02:28:01.550Z,100617.41
2022-10-22T02:30:31.545Z,100619.00
2022-10-22T02:33:14.692Z,100626.44
2022-10-22T02:35:43.758Z,100627.59
2022-10-22T02:38:15.179Z,100629.25
2022-10-22T02:40:43.368Z,100613.22
2022-10-22T02:43:11.629Z,100592.41
2022-10-22T02:45:39.919Z,100588.91
2022-10-22T02:48:08.230Z,100598.69
2022-10-22T02:50:36.775Z,100605.47
2022-10-22T02:53:04.914Z,100593.94
2022-10-22T02:55:33.139Z,100591.81
2022-10-22T02:58:01.930Z,100591.50
2022-10-22T03:00:30.151Z,100588.84
2022-10-22T03:02:58.303Z,100595.31
2022-10-22T03:05:26.400Z,100603.22
2022-10-22T03:07:54.527Z,100595.59
2022-10-22T03:10:22.734Z,100587.97
2022-10-22T03:12:50.867Z,100587.81
2022-10-22T03:15:19.087Z,100592.44
2022-10-22T03:17:47.314Z,100586.59
2022-10-22T03:20:15.879Z,100588.06
2022-10-22T03:22:45.166Z,100588.06
2022-10-22T03:25:18.954Z,100573.81
2022-10-22T03:27:47.742Z,100567.03
2022-10-22T03:30:15.873Z,100563.38
2022-10-22T03:32:44.064Z,100553.81
2022-10-22T03:35:13.359Z,100547.34
2022-10-22T03:37:42.521Z,100545.81
2022-10-22T03:40:11.789Z,100541.81
2022-10-22T03:42:41.411Z,100551.78
2022-10-22T03:45:10.201Z,100556.41
2022-10-22T03:47:38.707Z,100556.41
2022-10-22T03:50:07.642Z,100551.59
2022-10-22T03:52:39.835Z,100557.06
2022-10-22T03:55:09.149Z,100557.34
2022-10-22T03:57:37.796Z,100558.84
2022-10-22T04:00:07.379Z,100554.16
2022-10-22T04:02:36.264Z,100547.16
2022-10-22T04:05:04.598Z,100562.50
2022-10-22T04:07:32.802Z,100568.66
2022-10-22T04:10:00.955Z,100565.16
2022-10-22T04:12:29.087Z,100555.41
2022-10-22T04:14:57.219Z,100553.19
2022-10-22T04:17:25.446Z,100550.31
2022-10-22T04:19:53.580Z,100547.50
2022-10-22T04:22:21.657Z,100558.22
2022-10-22T04:27:22.831Z,100545.25
2022-10-22T04:29:51.071Z,100552.66
2022-10-22T04:32:19.208Z,100549.66
2022-10-22T04:34:47.387Z,100553.84
2022-10-22T04:37:15.469Z,100563.03
2022-10-22T04:39:43.634Z,100559.34
2022-10-22T04:42:12.644Z,100559.22
2022-10-22T04:44:40.765Z,100548.78
2022-10-22T04:47:08.922Z,100540.41
2022-10-22T04:49:40.084Z,100535.63
2022-10-22T04:52:08.259Z,100532.63
2022-10-22T04:54:36.865Z,100529.81
2022-10-22T04:57:05.040Z,100524.34
2022-10-22T04:59:33.179Z,100529.63
2022-10-22T05:02:01.336Z,100532.63
2022-10-22T05:04:29.495Z,100521.69
2022-10-22T05:06:57.728Z,100526.31
2022-10-22T05:09:28.736Z,100525.84
2022-10-22T05:11:56.898Z,100531.00
2022-10-22T05:14:26.179Z,100536.28
2022-10-22T05:16:54.939Z,100534.09
2022-10-22T05:19:31.383Z,100533.94
2022-10-22T05:22:01.571Z,100510.84
2022-10-22T05:24:32.157Z,100520.09
2022-10-22T05:27:03.330Z,100513.06
2022-10-22T05:29:31.443Z,100508.25
2022-10-22T05:31:59.560Z,100503.84
2022-10-22T05:34:27.661Z,100505.03
2022-10-22T05:36:55.776Z,100509.69
2022-10-22T05:39:23.989Z,100524.25
2022-10-22T05:41:52.106Z,100517.31
2022-10-22T05:44:20.434Z,100517.16
2022-10-22T05:46:48.633Z,100528.66
2022-10-22T05:49:19.698Z,100523.31
2022-10-22T05:51:47.743Z,100524.59
2022-10-22T05:54:20.661Z,100535.84
2022-10-22T05:56:48.909Z,100534.00
2022-10-22T05:59:17.071Z,100531.44
2022-10-22T06:01:45.383Z,100540.09
2022-10-22T06:04:14.152Z,100536.78
2022-10-22T06:06:48.845Z,100555.16
2022-10-22T06:12:10.966Z,100553.63
2022-10-22T06:14:39.140Z,100550.78
2022-10-22T06:17:07.368Z,100571.50
2022-10-22T06:19:35.663Z,100570.00
2022-10-22T06:22:04.746Z,100559.69
2022-10-22T06:24:32.897Z,100556.47
2022-10-22T06:27:01.107Z,100582.97
2022-10-22T06:29:29.300Z,100584.44
2022-10-22T06:31:57.413Z,100571.38
2022-10-22T06:34:25.654Z,100564.44
2022-10-22T06:36:53.774Z,100570.56
2022-10-22T06:39:21.850Z,100580.31
2022-10-22T06:41:50.006Z,100584.81
2022-10-22T06:44:20.006Z,100597.41
2022-10-22T06:46:52.462Z,100586.50
2022-10-22T06:49:21.818Z,100597.28
2022-10-22T06:51:54.089Z,100595.16
2022-10-22T06:54:23.048Z,100603.56
2022-10-22T06:56:51.368Z,100598.75
2022-10-22T06:59:19.517Z,100588.44
2022-10-22T07:01:47.801Z,100587.75
2022-10-22T07:04:16.408Z,100597.25
2022-10-22T07:06:44.774Z,100592.63
2022-10-22T07:09:13.008Z,100592.53
2022-10-22T07:11:44.590Z,100597.13
2022-10-22T07:14:14.046Z,100603.34
2022-10-22T07:16:43.178Z,100607.59
2022-10-22T07:19:16.311Z,100612.28
2022-10-22T07:21:44.670Z,100613.66
2022-10-22T07:24:12.895Z,100606.44
2022-10-22T07:26:41.061Z,100609.91
2022-10-22T07:29:10.146Z,100611.84
2022-10-22T07:31:38.590Z,100627.03
2022-10-22T07:34:06.728Z,100623.25
2022-10-22T07:36:37.729Z,100622.16
2022-10-22T07:39:06.548Z,100617.56
2022-10-22T07:41:34.767Z,100616.47
2022-10-22T07:44:03.067Z,100620.84
2022-10-22T07:46:31.680Z,100632.97
2022-10-22T07:48:59.838Z,100626.25
2022-10-22T07:51:28.019Z,100627.91
2022-10-22T07:53:56.181Z,100631.09
2022-10-22T07:56:24.411Z,100634.00
2022-10-22T07:58:53.375Z,100632.41
2022-10-22T08:01:21.582Z,100624.09
2022-10-22T08:03:49.814Z,100622.69
2022-10-22T08:06:18.000Z,100627.91
2022-10-22T08:08:46.493Z,100623.72
2022-10-22T08:11:16.016Z,100631.63
2022-10-22T08:13:45.574Z,100627.25
2022-10-22T08:16:14.926Z,100637.59
2022-10-22T08:18:43.475Z,100637.25
2022-10-22T08:21:12.525Z,100638.13
2022-10-22T08:23:40.909Z,100632.47
2022-10-22T08:26:09.717Z,100635.94
2022-10-22T08:28:37.983Z,100629.28
2022-10-22T08:31:08.313Z,100641.59
2022-10-22T08:33:39.013Z,100629.88
2022-10-22T08:36:07.840Z,100632.06
2022-10-22T08:38:36.407Z,100632.84
2022-10-22T08:41:12.188Z,100638.69
2022-10-22T08:43:55.264Z,100638.44
2022-10-22T08:46:26.535Z,100650.47
2022-10-22T08:48:57.831Z,100655.59
2022-10-22T08:51:31.232Z,100651.69
2022-10-22T08:54:22.705Z,100658.63
2022-10-22T08:57:09.008Z,100645.94
2022-10-22T08:59:56.274Z,100661.06
2022-10-22T09:02:27.487Z,100660.06
2022-10-22T09:05:15.791Z,100666.09
2022-10-22T09:07:48.647Z,100669.53
2022-10-22T09:10:20.090Z,100659.28
2022-10-22T09:12:48.923Z,100668.19
2022-10-22T09:15:20.602Z,100659.41
2022-10-22T09:18:09.649Z,100666.56
2022-10-22T09:20:50.349Z,100669.13
2022-10-22T09:23:26.909Z,100677.28
2022-10-22T09:25:57.185Z,100676.09
2022-10-22T09:28:25.501Z,100682.75
2022-10-22T09:30:53.839Z,100675.03
2022-10-22T09:33:32.868Z,100670.97
2022-10-22T09:36:04.526Z,100668.03
2022-10-22T09:38:40.154Z,100669.59
2022-10-22T09:41:10.856Z,100666.72
2022-10-22T09:43:39.083Z,100669.88
2022-10-22T09:46:15.445Z,100678.00
2022-10-22T09:49:03.409Z,100679.44
2022-10-22T09:51:49.031Z,100683.75
2022-10-22T09:54:20.931Z,100684.31
2022-10-22T09:57:05.397Z,100684.13
2022-10-22T09:59:37.475Z,100685.22
2022-10-22T10:02:38.387Z,100671.50
2022-10-22T10:05:08.362Z,100682.28
2022-10-22T10:07:37.094Z,100688.00
2022-10-22T10:10:21.351Z,100688.97
2022-10-22T10:13:02.180Z,100684.66
2022-10-22T10:15:36.680Z,100694.34
2022-10-22T10:18:12.796Z,100695.25
2022-10-22T10:20:54.084Z,100697.84
2022-10-22T10:23:27.964Z,100703.22
2022-10-22T10:26:09.867Z,100699.72
2022-10-22T10:28:44.647Z,100706.28
2022-10-22T10:31:33.778Z,100713.25
2022-10-22T10:34:22.339Z,100705.91
2022-10-22T10:37:08.997Z,100698.78
2022-10-22T10:40:18.923Z,100706.00
2022-10-22T10:42:57.957Z,100707.06
2022-10-22T10:45:46.338Z,100699.09
2022-10-22T10:48:35.424Z,100690.91
2022-10-22T10:51:03.510Z,100687.84
2022-10-22T10:53:37.351Z,100694.41
2022-10-22T10:56:30.376Z,100692.78
2022-10-22T10:59:27.077Z,100699.75
2022-10-22T11:02:18.794Z,100702.63
2022-10-22T11:05:05.656Z,100698.13
2022-10-22T11:07:47.948Z,100700.56
2022-10-22T11:10:47.295Z,100701.59
2022-10-22T11:13:36.795Z,100710.00
2022-10-22T11:16:31.395Z,100714.28
2022-10-22T11:19:51.512Z,100717.56
2022-10-22T11:22:28.808Z,100714.28
2022-10-22T11:25:40.623Z,100709.59
2022-10-22T11:28:33.830Z,100711.03
2022-10-22T11:31:25.404Z,100712.88
2022-10-22T11:34:34.824Z,100708.78
2022-10-22T11:37:04.920Z,100706.09
2022-10-22T11:39:45.196Z,100713.28
2022-10-22T11:42:23.144Z,100714.28
2022-10-22T11:45:15.385Z,100709.59
2022-10-22T11:47:58.856Z,100714.28
2022-10-22T11:50:47.025Z,100714.47
2022-10-22T11:53:15.075Z,100715.31
2022-10-22T11:55:48.806Z,100715.50
2022-10-22T11:58:39.495Z,100712.44
2022-10-22T12:01:10.365Z,100718.19
2022-10-22T12:03:44.489Z,100716.31
2022-10-22T12:06:15.862Z,100714.63
2022-10-22T12:08:54.882Z,100719.50
2022-10-22T12:11:47.820Z,100726.00
2022-10-22T12:14:51.165Z,100728.00
2022-10-22T12:17:21.697Z,100733.69
2022-10-22T12:20:12.154Z,100735.66
2022-10-22T12:22:47.806Z,100733.41
2022-10-22T12:25:35.857Z,100731.34
2022-10-22T12:28:04.766Z,100729.13
2022-10-22T12:30:37.201Z,100734.22
2022-10-22T12:33:08.260Z,100735.84
2022-10-22T12:35:46.098Z,100742.63
2022-10-22T12:38:17.690Z,100745.53
2022-10-22T12:40:48.624Z,100742.53
2022-10-22T12:43:23.688Z,100743.91
2022-10-22T12:45:52.887Z,100737.81
2022-10-22T12:48:42.347Z,100730.75
2022-10-22T12:51:17.426Z,100737.78
2022-10-22T12:53:54.116Z,100729.72
2022-10-22T12:56:33.357Z,100727.34
2022-10-22T12:59:18.038Z,100729.59
2022-10-22T13:01:48.427Z,100717.88
2022-10-22T13:04:26.942Z,100717.88
2022-10-22T13:07:15.978Z,100723.19
2022-10-22T13:09:59.919Z,100721.91
2022-10-22T13:12:36.616Z,100720.88
2022-10-22T13:15:27.930Z,100725.22
2022-10-22T13:18:21.009Z,100723.38
2022-10-22T13:21:03.026Z,100729.13
2022-10-22T13:23:33.826Z,100733.22
2022-10-22T13:26:05.036Z,100737.00
2022-10-22T13:28:33.523Z,100737.63
2022-10-22T13:31:14.598Z,100738.47
2022-10-22T13:33:45.643Z,100742.78
2022-10-22T13:36:15.580Z,100740.06
2022-10-22T13:38:44.890Z,100739.44
2022-10-22T13:41:27.267Z,100738.50
2022-10-22T13:43:55.876Z,100739.34
2022-10-22T13:46:25.957Z,100741.22
2022-10-22T13:48:58.177Z,100739.19
2022-10-22T13:51:37.087Z,100735.88
2022-10-22T13:54:18.020Z,100738.75
2022-10-22T13:56:46.534Z,100740.72
2022-10-22T13:59:16.274Z,100742.00
2022-10-22T14:01:46.866Z,100735.50
2022-10-22T14:04:15.646Z,100743.03
2022-10-22T14:06:43.890Z,100738.69
2022-10-22T14:09:15.471Z,100739.13
2022-10-22T14:11:44.984Z,100739.56
2022-10-22T14:14:17.100Z,100741.63
2022-10-22T14:16:45.481Z,100735.81
2022-10-22T14:19:17.846Z,100733.63
2022-10-22T14:21:46.073Z,100734.66
2022-10-22T14:24:14.155Z,100731.56
2022-10-22T14:26:42.301Z,100737.13
2022-10-22T14:29:11.335Z,100733.41
2022-10-22T14:31:42.568Z,100742.47
2022-10-22T14:34:12.824Z,100740.84
2022-10-22T14:36:43.742Z,100745.31
2022-10-22T14:39:13.336Z,100741.41
2022-10-22T14:41:42.503Z,100746.34
2022-10-22T14:44:13.955Z,100749.41
2022-10-22T14:46:44.046Z,100749.59
2022-10-22T14:49:12.754Z,100754.44
2022-10-22T14:51:40.861Z,100749.41
2022-10-22T14:54:09.001Z,100750.63
2022-10-22T14:59:11.059Z,100753.94
2022-10-22T15:01:39.412Z,100758.59
2022-10-22T15:04:08.588Z,100760.94
2022-10-22T15:06:37.002Z,100759.78
2022-10-22T15:09:07.265Z,100759.56
2022-10-22T15:11:35.516Z,100761.75
2022-10-22T15:14:03.940Z,100760.06
2022-10-22T15:16:32.167Z,100764.03
2022-10-22T15:19:00.940Z,100765.53
2022-10-22T15:21:29.195Z,100765.91
2022-10-22T15:23:57.353Z,100765.13
2022-10-22T15:26:27.172Z,100762.16
2022-10-22T15:28:56.072Z,100755.13
2022-10-22T15:31:47.186Z,100767.13
2022-10-22T15:34:20.807Z,100767.41
2022-10-22T15:36:52.446Z,100769.16
2022-10-22T15:39:20.609Z,100768.28
2022-10-22T15:41:49.917Z,100774.88
2022-10-22T15:44:21.024Z,100768.22
2022-10-22T15:49:28.638Z,100777.66
2022-10-22T15:51:56.910Z,100777.22
2022-10-22T15:54:29.853Z,100787.94
2022-10-22T15:57:00.141Z,100786.38
2022-10-22T15:59:29.487Z,100789.63
2022-10-22T16:01:57.542Z,100797.88
2022-10-22T16:04:25.746Z,100801.97
2022-10-22T16:06:55.864Z,100806.69
2022-10-22T16:09:26.261Z,100812.25
2022-10-22T16:11:55.443Z,100820.09
2022-10-22T16:14:24.200Z,100827.09
2022-10-22T16:16:54.236Z,100826.50
2022-10-22T16:19:23.921Z,100827.56
2022-10-22T16:21:54.642Z,100833.41
2022-10-22T16:24:23.266Z,100830.41
2022-10-22T16:26:53.107Z,100839.91
2022-10-22T16:29:21.298Z,100841.41
2022-10-22T16:31:49.471Z,100843.09
2022-10-22T16:34:17.647Z,100844.81
2022-10-22T16:36:46.201Z,100842.00
2022-10-22T16:39:14.434Z,100850.97
2022-10-22T16:41:44.416Z,100850.50
2022-10-22T16:44:13.767Z,100856.81
2022-10-22T16:46:42.110Z,100866.25
2022-10-22T16:49:12.535Z,100868.41
2022-10-22T16:51:40.727Z,100872.22
2022-10-22T16:54:12.545Z,100872.09
2022-10-22T16:56:41.229Z,100880.72
2022-10-22T16:59:12.822Z,100882.22
2022-10-22T17:01:41.611Z,100890.84
2022-10-22T17:04:10.273Z,100890.66
2022-10-22T17:06:40.522Z,100894.63
2022-10-22T17:09:09.114Z,100897.91
2022-10-22T17:11:40.155Z,100907.38
2022-10-22T17:14:10.879Z,100901.25
2022-10-22T17:16:38.970Z,100911.31
2022-10-22T17:19:10.775Z,100907.84
2022-10-22T17:21:38.932Z,100904.22
2022-10-22T17:24:07.323Z,100913.63
2022-10-22T17:26:37.360Z,100923.56
2022-10-22T17:29:05.968Z,100927.00
2022-10-22T17:31:37.452Z,100924.00
2022-10-22T17:34:10.840Z,100938.56
2022-10-22T17:36:42.123Z,100933.59
2022-10-22T17:39:19.572Z,100948.28
2022-10-22T17:41:47.694Z,100954.06
2022-10-22T17:44:17.026Z,100950.91
2022-10-22T17:46:45.502Z,100951.38
2022-10-22T17:49:18.063Z,100955.34
2022-10-22T17:51:46.616Z,100949.38
2022-10-22T17:54:16.439Z,100960.94
2022-10-22T17:56:44.564Z,100960.44
2022-10-22T17:59:15.440Z,100958.94
2022-10-22T18:01:45.916Z,100969.53
2022-10-22T18:04:17.242Z,100970.13
2022-10-22T18:06:47.088Z,100974.38
2022-10-22T18:09:18.750Z,100983.59
2022-10-22T18:11:49.290Z,100995.25
2022-10-22T18:14:18.952Z,101001.63
2022-10-22T18:16:48.366Z,100994.25
2022-10-22T18:19:20.156Z,101007.22
2022-10-22T18:21:48.561Z,100998.94
2022-10-22T18:24:18.542Z,101000.75
2022-10-22T18:26:46.655Z,101000.59
2022-10-22T18:29:17.978Z,100991.16
2022-10-22T18:31:46.855Z,100998.44
2022-10-22T18:34:17.646Z,101005.97
2022-10-22T18:36:48.495Z,101007.78
2022-10-22T18:39:17.048Z,101016.03
2022-10-22T18:41:47.932Z,101013.69
2022-10-22T18:44:16.920Z,101021.59
2022-10-22T18:46:45.257Z,101012.84
2022-10-22T18:49:18.721Z,101014.59
2022-10-22T18:51:52.505Z,101022.72
2022-10-22T18:54:24.379Z,101019.13
2022-10-22T18:56:55.490Z,101019.34
2022-10-22T18:59:27.416Z,101019.13
2022-10-22T19:02:00.367Z,101019.97
2022-10-22T19:04:33.611Z,101017.78
2022-10-22T19:07:01.878Z,101024.09
2022-10-22T19:09:30.197Z,101026.91
2022-10-22T19:11:58.430Z,101028.72
2022-10-22T19:14:27.118Z,101024.94
2022-10-22T19:16:55.362Z,101034.28
2022-10-22T19:19:24.401Z,101037.91
2022-10-22T19:21:59.535Z,101038.59
2022-10-22T19:24:27.800Z,101051.09
2022-10-22T19:26:55.977Z,101058.88
2022-10-22T19:29:24.253Z,101057.97
2022-10-22T19:31:52.909Z,101060.78
2022-10-22T19:34:21.521Z,101057.44
2022-10-22T19:36:51.803Z,101063.41
2022-10-22T19:39:20.292Z,101064.59
2022-10-22T19:41:48.748Z,101077.34
2022-10-22T19:44:18.376Z,101076.22
2022-10-22T19:46:56.780Z,101077.72
2022-10-22T19:49:26.187Z,101077.56
2022-10-22T19:51:54.345Z,101083.00
2022-10-22T19:54:23.645Z,101084.03
2022-10-22T19:56:52.120Z,101090.63
2022-10-22T19:59:22.773Z,101090.63
2022-10-22T20:01:50.928Z,101090.63
2022-10-22T20:04:19.642Z,101090.63
2022-10-22T20:06:47.963Z,101090.63
2022-10-22T20:09:16.193Z,101094.75
2022-10-22T20:11:44.902Z,101097.25
2022-10-22T20:14:14.258Z,101088.22
2022-10-22T20:16:42.804Z,101100.19
2022-10-22T20:19:15.925Z,101098.63
2022-10-22T20:21:45.595Z,101101.91
2022-10-22T20:24:16.253Z,101103.22
2022-10-22T20:26:46.594Z,101108.50
2022-10-22T20:29:15.941Z,101113.41
2022-10-22T20:31:44.175Z,101121.91
2022-10-22T20:34:12.302Z,101119.50
2022-10-22T20:36:41.687Z,101114.44
2022-10-22T20:39:14.371Z,101116.84
2022-10-22T20:41:42.517Z,101115.50
2022-10-22T20:44:16.320Z,101123.03
2022-10-22T20:46:45.237Z,101124.53
2022-10-22T20:49:17.749Z,101124.22
2022-10-22T20:51:46.724Z,101138.28
2022-10-22T20:54:15.490Z,101136.59
2022-10-22T20:56:44.015Z,101136.38
2022-10-22T20:59:12.779Z,101134.09
2022-10-22T21:01:46.390Z,101149.59
2022-10-22T21:04:15.571Z,101156.84
2022-10-22T21:06:44.030Z,101159.19
2022-10-22T21:09:14.490Z,101162.22
2022-10-22T21:11:43.807Z,101162.09
2022-10-22T21:14:30.660Z,101167.63
2022-10-22T21:16:59.787Z,101169.69
2022-10-22T21:19:28.094Z,101164.97
2022-10-22T21:21:56.301Z,101163.16
2022-10-22T21:24:26.249Z,101170.91
2022-10-22T21:26:54.354Z,101166.34
2022-10-22T21:29:22.409Z,101172.69
2022-10-22T21:31:50.572Z,101170.56
2022-10-22T21:34:18.684Z,101168.63
2022-10-22T21:39:15.881Z,101170.16
2022-10-22T21:41:45.107Z,101162.22
2022-10-22T21:44:16.358Z,101172.72
2022-10-22T21:46:44.494Z,101177.69
2022-10-22T21:49:14.311Z,101183.09
2022-10-22T21:51:46.183Z,101190.03
2022-10-22T21:54:14.288Z,101185.88
2022-10-22T21:56:43.238Z,101188.38
2022-10-22T21:59:12.075Z,101190.69
2022-10-22T22:01:40.162Z,101185.81
2022-10-22T22:04:08.272Z,101185.44
2022-10-22T22:06:36.388Z,101196.38
2022-10-22T22:09:05.679Z,101181.25
2022-10-22T22:11:37.668Z,101195.28
2022-10-22T22:14:05.834Z,101197.66
2022-10-22T22:16:34.627Z,101199.81
2022-10-22T22:19:06.969Z,101191.06
2022-10-22T22:21:36.961Z,101187.97
2022-10-22T22:24:05.594Z,101191.97
2022-10-22T22:26:33.909Z,101183.59
2022-10-22T22:29:02.192Z,101181.34
2022-10-22T22:31:32.923Z,101179.09
2022-10-22T22:34:11.003Z,101186.03
2022-10-22T22:36:41.504Z,101184.31
2022-10-22T22:39:13.634Z,101179.94
2022-10-22T22:41:42.741Z,101183.13
2022-10-22T22:44:11.534Z,101176.88
2022-10-22T22:46:40.164Z,101177.69
2022-10-22T22:49:08.807Z,101179.03
2022-10-22T22:51:36.958Z,101179.63
2022-10-22T22:54:05.114Z,101176.19
2022-10-22T22:56:34.630Z,101172.09
2022-10-22T22:59:04.206Z,101177.88
2022-10-22T23:01:37.953Z,101170.44
2022-10-22T23:04:11.195Z,101183.59
2022-10-22T23:06:42.253Z,101179.59
2022-10-22T23:09:12.936Z,101179.19
2022-10-22T23:11:42.527Z,101181.28
2022-10-22T23:14:16.149Z,101192.69
2022-10-22T23:16:47.989Z,101189.13
2022-10-22T23:19:19.173Z,101186.09
2022-10-22T23:21:52.626Z,101181.13
2022-10-22T23:24:28.412Z,101186.50
2022-10-22T23:26:59.943Z,101185.53
2022-10-22T23:29:31.297Z,101191.38
2022-10-22T23:32:04.261Z,101186.97
2022-10-22T23:34:32.651Z,101189.47
2022-10-22T23:37:03.279Z,101187.53
2022-10-22T23:39:31.536Z,101190.97
2022-10-22T23:41:59.868Z,101191.50
2022-10-22T23:44:28.095Z,101190.34
2022-10-22T23:46:56.356Z,101186.16
2022-10-22T23:49:24.586Z,101186.13
2022-10-22T23:51:52.743Z,101181.13
2022-10-22T23:54:20.955Z,101180.38
2022-10-22T23:56:49.126Z,101179.81
2022-10-22T23:59:17.259Z,101178.38
